KHIF

Hill Air Force Base

Airport
ICAO code
KHIF
Summary
ICAO Region
NAM
ICAO Territory
Location

Ogden, Utah,

Elevation
4789 ft
Coordinates
41° 7' 26" N , 111° 58' 24" W
KCC
Airport CFIT
Altimeter Temperature Error Correction
Airport RE
Hot and High Operations
Metar
KHIF 271355Z AUTO 11014KT 10SM CLR 14/01 A3006 RMK AO2 SLP133 T01380011

Description

Hill Air Force Base is a United States Air Force facility located in northern Utah, just south of the city of Ogden.

Climatology

Dry-summer continental climate (Köppen climate classification Dsa) a relatively rare form of the continental climate where a region experiences dry summers and wet winters. There are four distinct seasons. Both summer and winter are long, with hot, dry summers and cold, snowy winters separated by brief spring and fall transition periods. Spring is the wettest season, while summer is usually the driest. Large seasonal temperature variation

Airport map

Aerial View

SKYbrary Partners:

Safety knowledge contributed by: